VTR12 VOHS-VOHS
Flight info
| Callsign | VTR12 |
|---|---|
| Flight time | 0h 14m |
| Altitude | 3500 |
| Route | VFR CIRCUIT PATTERN |
| Aircraft | C172/L-SFG/C |
Departure
| Time | 2026-04-11 09:16 |
|---|---|
| Airport | Rajiv Gandhi International Airport (VOHS) |
Arrival
| Time | 2026-04-11 09:30 |
|---|---|
| Airport | Rajiv Gandhi International Airport (VOHS) |
| Time | Latitude | Longitude | Altitude | Speed | Heading |
|---|---|---|---|---|---|
| 2026-04-11 08:40 | 17.23511 | 78.44954 | 2002 ft | 0 kts | 175° |
| 2026-04-11 09:04 | 17.23483 | 78.44937 | 2002 ft | 20 kts | 197° |
| 2026-04-11 09:04 | 17.23314 | 78.44924 | 2002 ft | 32 kts | 180° |
| 2026-04-11 09:04 | 17.23109 | 78.44906 | 2001 ft | 13 kts | 246° |
| 2026-04-11 09:05 | 17.23111 | 78.44838 | 2000 ft | 10 kts | 269° |
| 2026-04-11 09:05 | 17.23109 | 78.44729 | 1999 ft | 22 kts | 269° |
| 2026-04-11 09:05 | 17.23106 | 78.44529 | 1998 ft | 28 kts | 269° |
| 2026-04-11 09:05 | 17.23104 | 78.44342 | 1995 ft | 24 kts | 269° |
| 2026-04-11 09:06 | 17.23102 | 78.44184 | 1993 ft | 20 kts | 269° |
| 2026-04-11 09:06 | 17.23100 | 78.44036 | 1991 ft | 22 kts | 269° |
| 2026-04-11 09:06 | 17.23097 | 78.43858 | 1988 ft | 24 kts | 269° |
| 2026-04-11 09:06 | 17.23097 | 78.43693 | 1986 ft | 21 kts | 269° |
| 2026-04-11 09:07 | 17.23093 | 78.43553 | 1984 ft | 18 kts | 269° |
| 2026-04-11 09:07 | 17.23091 | 78.43429 | 1981 ft | 16 kts | 269° |
| 2026-04-11 09:07 | 17.23089 | 78.43265 | 1979 ft | 30 kts | 269° |
| 2026-04-11 09:07 | 17.23086 | 78.43041 | 1977 ft | 28 kts | 269° |
| 2026-04-11 09:08 | 17.23083 | 78.42851 | 1975 ft | 24 kts | 269° |
| 2026-04-11 09:08 | 17.23082 | 78.42692 | 1974 ft | 20 kts | 269° |
| 2026-04-11 09:08 | 17.23079 | 78.42520 | 1972 ft | 26 kts | 269° |
| 2026-04-11 09:08 | 17.23076 | 78.42343 | 1968 ft | 23 kts | 269° |
| 2026-04-11 09:09 | 17.23024 | 78.42239 | 1967 ft | 15 kts | 188° |
| 2026-04-11 09:09 | 17.22974 | 78.42238 | 1967 ft | 0 kts | 178° |
| 2026-04-11 09:09 | 17.22973 | 78.42238 | 1967 ft | 2 kts | 178° |
| 2026-04-11 09:10 | 17.22877 | 78.42270 | 1966 ft | 19 kts | 120° |
| 2026-04-11 09:10 | 17.22873 | 78.42516 | 1969 ft | 57 kts | 89° |
| 2026-04-11 09:10 | 17.22879 | 78.42946 | 1976 ft | 52 kts | 89° |
| 2026-04-11 09:10 | 17.22881 | 78.43271 | 1982 ft | 37 kts | 89° |
| 2026-04-11 09:11 | 17.22960 | 78.43477 | 1984 ft | 27 kts | 58° |
| 2026-04-11 09:11 | 17.23031 | 78.43587 | 1985 ft | 9 kts | 30° |
| 2026-04-11 09:11 | 17.23092 | 78.43548 | 1984 ft | 17 kts | 277° |
| 2026-04-11 09:11 | 17.23091 | 78.43394 | 1981 ft | 25 kts | 269° |
| 2026-04-11 09:12 | 17.23089 | 78.43185 | 1979 ft | 32 kts | 269° |
| 2026-04-11 09:12 | 17.23085 | 78.42959 | 1976 ft | 29 kts | 269° |
| 2026-04-11 09:12 | 17.23082 | 78.42745 | 1974 ft | 33 kts | 268° |
| 2026-04-11 09:12 | 17.23078 | 78.42479 | 1971 ft | 35 kts | 269° |
| 2026-04-11 09:13 | 17.23072 | 78.42281 | 1968 ft | 20 kts | 256° |
| 2026-04-11 09:13 | 17.22981 | 78.42238 | 1967 ft | 9 kts | 178° |
| 2026-04-11 09:13 | 17.22972 | 78.42238 | 1967 ft | 0 kts | 178° |
| 2026-04-11 09:14 | 17.22950 | 78.42239 | 1966 ft | 12 kts | 180° |
| 2026-04-11 09:15 | 17.22871 | 78.42326 | 1967 ft | 24 kts | 89° |
| 2026-04-11 09:15 | 17.22875 | 78.42678 | 1971 ft | 70 kts | 89° |
| 2026-04-11 09:15 | 17.22876 | 78.43273 | 2069 ft | 88 kts | 88° |
| 2026-04-11 09:15 | 17.22901 | 78.43934 | 2242 ft | 92 kts | 89° |
| 2026-04-11 09:16 | 17.22903 | 78.44598 | 2455 ft | 92 kts | 91° |
| 2026-04-11 09:16 | 17.22902 | 78.45283 | 2622 ft | 96 kts | 89° |
| 2026-04-11 09:16 | 17.22902 | 78.45956 | 2734 ft | 92 kts | 94° |
| 2026-04-11 09:16 | 17.22600 | 78.46489 | 2857 ft | 88 kts | 158° |
| 2026-04-11 09:17 | 17.22006 | 78.46585 | 2975 ft | 87 kts | 178° |
| 2026-04-11 09:17 | 17.21383 | 78.46604 | 3010 ft | 97 kts | 180° |
| 2026-04-11 09:17 | 17.20721 | 78.46395 | 3110 ft | 104 kts | 219° |
| 2026-04-11 09:17 | 17.20372 | 78.45829 | 3035 ft | 87 kts | 264° |
| 2026-04-11 09:18 | 17.20369 | 78.45208 | 2912 ft | 89 kts | 273° |
| 2026-04-11 09:18 | 17.20394 | 78.44512 | 2999 ft | 100 kts | 272° |
| 2026-04-11 09:18 | 17.20431 | 78.43835 | 2940 ft | 87 kts | 274° |
| 2026-04-11 09:18 | 17.20475 | 78.43203 | 2934 ft | 86 kts | 274° |
| 2026-04-11 09:19 | 17.20501 | 78.42551 | 2916 ft | 97 kts | 273° |
| 2026-04-11 09:19 | 17.20517 | 78.41811 | 2950 ft | 109 kts | 271° |
| 2026-04-11 09:19 | 17.20526 | 78.41004 | 3009 ft | 114 kts | 270° |
| 2026-04-11 09:19 | 17.20508 | 78.40162 | 3067 ft | 117 kts | 270° |
| 2026-04-11 09:20 | 17.20602 | 78.39386 | 3125 ft | 99 kts | 302° |
| 2026-04-11 09:20 | 17.21185 | 78.39004 | 2925 ft | 106 kts | 351° |
| 2026-04-11 09:20 | 17.21916 | 78.38993 | 2719 ft | 104 kts | 2° |
| 2026-04-11 09:20 | 17.22599 | 78.39089 | 2539 ft | 90 kts | 25° |
| 2026-04-11 09:21 | 17.22900 | 78.39604 | 2333 ft | 88 kts | 88° |
| 2026-04-11 09:21 | 17.22876 | 78.40254 | 2160 ft | 92 kts | 93° |
| 2026-04-11 09:21 | 17.22859 | 78.40941 | 2070 ft | 96 kts | 90° |
| 2026-04-11 09:21 | 17.22863 | 78.41656 | 1976 ft | 99 kts | 90° |
| 2026-04-11 09:22 | 17.22870 | 78.42319 | 1967 ft | 79 kts | 89° |
| 2026-04-11 09:22 | 17.22864 | 78.42949 | 2035 ft | 94 kts | 92° |
| 2026-04-11 09:22 | 17.22871 | 78.43658 | 2183 ft | 101 kts | 88° |
| 2026-04-11 09:22 | 17.22919 | 78.44408 | 2346 ft | 103 kts | 85° |
| 2026-04-11 09:23 | 17.22949 | 78.45146 | 2537 ft | 103 kts | 90° |
| 2026-04-11 09:23 | 17.22958 | 78.45900 | 2707 ft | 103 kts | 90° |
| 2026-04-11 09:23 | 17.22969 | 78.46648 | 2880 ft | 103 kts | 90° |
| 2026-04-11 09:23 | 17.22981 | 78.47432 | 2959 ft | 111 kts | 89° |
| 2026-04-11 09:24 | 17.23010 | 78.48247 | 3050 ft | 115 kts | 89° |
| 2026-04-11 09:24 | 17.23016 | 78.49097 | 3111 ft | 119 kts | 94° |
| 2026-04-11 09:24 | 17.22693 | 78.49880 | 3123 ft | 124 kts | 138° |
| 2026-04-11 09:24 | 17.21909 | 78.50222 | 3091 ft | 120 kts | 176° |
| 2026-04-11 09:25 | 17.21091 | 78.50293 | 3023 ft | 118 kts | 180° |
| 2026-04-11 09:25 | 17.20373 | 78.49975 | 3031 ft | 110 kts | 228° |
| 2026-04-11 09:25 | 17.20086 | 78.49237 | 2955 ft | 114 kts | 266° |
| 2026-04-11 09:25 | 17.20069 | 78.48432 | 3021 ft | 111 kts | 271° |
| 2026-04-11 09:26 | 17.20073 | 78.47599 | 3066 ft | 116 kts | 270° |
| 2026-04-11 09:26 | 17.20072 | 78.46739 | 3092 ft | 121 kts | 270° |
| 2026-04-11 09:26 | 17.20067 | 78.45863 | 3082 ft | 124 kts | 270° |
| 2026-04-11 09:26 | 17.20051 | 78.44965 | 3112 ft | 123 kts | 269° |
| 2026-04-11 09:27 | 17.20041 | 78.44052 | 3073 ft | 126 kts | 271° |
| 2026-04-11 09:27 | 17.20048 | 78.43141 | 3066 ft | 125 kts | 271° |
| 2026-04-11 09:27 | 17.20067 | 78.42252 | 3025 ft | 119 kts | 272° |
| 2026-04-11 09:27 | 17.20090 | 78.41394 | 2985 ft | 117 kts | 272° |
| 2026-04-11 09:28 | 17.20118 | 78.40546 | 2927 ft | 119 kts | 272° |
| 2026-04-11 09:28 | 17.20163 | 78.39703 | 2972 ft | 111 kts | 283° |
| 2026-04-11 09:28 | 17.20631 | 78.39104 | 2956 ft | 114 kts | 332° |
| 2026-04-11 09:28 | 17.21392 | 78.38971 | 2780 ft | 107 kts | 4° |
| 2026-04-11 09:29 | 17.22131 | 78.39065 | 2452 ft | 105 kts | 12° |
| 2026-04-11 09:29 | 17.22673 | 78.39438 | 2319 ft | 90 kts | 62° |
| 2026-04-11 09:29 | 17.22834 | 78.40067 | 2155 ft | 93 kts | 85° |
| 2026-04-11 09:29 | 17.22855 | 78.40757 | 2056 ft | 97 kts | 91° |
| 2026-04-11 09:30 | 17.22857 | 78.41432 | 1971 ft | 85 kts | 91° |
| 2026-04-11 09:30 | 17.22864 | 78.41972 | 1963 ft | 64 kts | 89° |
| 2026-04-11 09:30 | 17.22860 | 78.42375 | 1967 ft | 47 kts | 82° |
| 2026-04-11 09:30 | 17.22878 | 78.42725 | 1972 ft | 58 kts | 89° |
| 2026-04-11 09:31 | 17.22880 | 78.43180 | 1980 ft | 56 kts | 85° |
| 2026-04-11 09:31 | 17.22963 | 78.43483 | 1984 ft | 33 kts | 58° |
| 2026-04-11 09:31 | 17.23064 | 78.43650 | 1986 ft | 24 kts | 60° |
| 2026-04-11 09:31 | 17.23210 | 78.43701 | 1985 ft | 24 kts | 0° |
| 2026-04-11 09:32 | 17.23337 | 78.43665 | 1985 ft | 17 kts | 291° |
| 2026-04-11 09:32 | 17.23368 | 78.43589 | 1984 ft | 6 kts | 350° |
| 2026-04-11 09:32 | 17.23371 | 78.43588 | 1984 ft | 0 kts | 336° |